sensor_id;sensor_type;location;lat;lon;timestamp;P1;durP1;ratioP1;P2;durP2;ratioP2
27424;SDS011;15244;49.088;11.886;2023-03-14T00:00:28;1.10;;;1.10;;
27424;SDS011;15244;49.088;11.886;2023-03-14T00:05:30;2.08;;;1.98;;
27424;SDS011;15244;49.088;11.886;2023-03-14T00:10:31;2.50;;;1.88;;
27424;SDS011;15244;49.088;11.886;2023-03-14T00:15:33;3.15;;;2.47;;
27424;SDS011;15244;49.088;11.886;2023-03-14T00:20:35;1.95;;;1.20;;
27424;SDS011;15244;49.088;11.886;2023-03-14T00:25:37;1.63;;;0.90;;
27424;SDS011;15244;49.088;11.886;2023-03-14T00:30:39;1.58;;;1.40;;
27424;SDS011;15244;49.088;11.886;2023-03-14T00:35:43;0.75;;;0.75;;
27424;SDS011;15244;49.088;11.886;2023-03-14T00:40:44;1.33;;;0.55;;
27424;SDS011;15244;49.088;11.886;2023-03-14T00:45:46;1.95;;;1.30;;
27424;SDS011;15244;49.088;11.886;2023-03-14T00:50:48;1.17;;;1.08;;
27424;SDS011;15244;49.088;11.886;2023-03-14T00:55:50;2.47;;;0.40;;
27424;SDS011;15244;49.088;11.886;2023-03-14T01:00:51;0.15;;;0.15;;
27424;SDS011;15244;49.088;11.886;2023-03-14T01:05:53;3.72;;;0.20;;
27424;SDS011;15244;49.088;11.886;2023-03-14T01:10:55;0.40;;;0.30;;
27424;SDS011;15244;49.088;11.886;2023-03-14T01:16:05;1.20;;;0.20;;
27424;SDS011;15244;49.088;11.886;2023-03-14T01:21:15;0.30;;;0.15;;
27424;SDS011;15244;49.088;11.886;2023-03-14T01:26:29;0.20;;;0.20;;
27424;SDS011;15244;49.088;11.886;2023-03-14T01:31:32;0.20;;;0.20;;
27424;SDS011;15244;49.088;11.886;2023-03-14T01:36:34;0.10;;;0.00;;
27424;SDS011;15244;49.088;11.886;2023-03-14T01:41:36;0.00;;;0.00;;
27424;SDS011;15244;49.088;11.886;2023-03-14T01:57:07;0.57;;;0.57;;
27424;SDS011;15244;49.088;11.886;2023-03-14T02:02:12;0.10;;;0.10;;
27424;SDS011;15244;49.088;11.886;2023-03-14T02:07:22;0.20;;;0.20;;
27424;SDS011;15244;49.088;11.886;2023-03-14T02:12:41;0.13;;;0.13;;
27424;SDS011;15244;49.088;11.886;2023-03-14T02:17:49;0.52;;;0.10;;
27424;SDS011;15244;49.088;11.886;2023-03-14T02:28:49;0.45;;;0.10;;
27424;SDS011;15244;49.088;11.886;2023-03-14T02:33:52;0.10;;;0.10;;
27424;SDS011;15244;49.088;11.886;2023-03-14T02:39:07;0.10;;;0.08;;
27424;SDS011;15244;49.088;11.886;2023-03-14T02:44:17;1.55;;;0.10;;
27424;SDS011;15244;49.088;11.886;2023-03-14T02:49:19;0.00;;;0.00;;
27424;SDS011;15244;49.088;11.886;2023-03-14T02:54:21;0.10;;;0.00;;
27424;SDS011;15244;49.088;11.886;2023-03-14T02:59:24;0.10;;;0.10;;
27424;SDS011;15244;49.088;11.886;2023-03-14T03:04:29;1.20;;;0.10;;
27424;SDS011;15244;49.088;11.886;2023-03-14T03:09:31;0.10;;;0.03;;
27424;SDS011;15244;49.088;11.886;2023-03-14T03:14:33;0.65;;;0.10;;
27424;SDS011;15244;49.088;11.886;2023-03-14T03:19:37;0.03;;;0.00;;
27424;SDS011;15244;49.088;11.886;2023-03-14T03:24:39;0.25;;;0.10;;
27424;SDS011;15244;49.088;11.886;2023-03-14T03:29:41;0.20;;;0.10;;
27424;SDS011;15244;49.088;11.886;2023-03-14T03:34:43;0.68;;;0.20;;
27424;SDS011;15244;49.088;11.886;2023-03-14T03:39:45;0.10;;;0.10;;
27424;SDS011;15244;49.088;11.886;2023-03-14T03:44:47;0.22;;;0.10;;
27424;SDS011;15244;49.088;11.886;2023-03-14T03:49:49;1.38;;;0.10;;
27424;SDS011;15244;49.088;11.886;2023-03-14T03:54:51;1.00;;;0.20;;
27424;SDS011;15244;49.088;11.886;2023-03-14T03:59:52;0.15;;;0.10;;
27424;SDS011;15244;49.088;11.886;2023-03-14T04:04:54;1.02;;;0.10;;
27424;SDS011;15244;49.088;11.886;2023-03-14T04:09:56;0.10;;;0.10;;
27424;SDS011;15244;49.088;11.886;2023-03-14T04:15:18;0.05;;;0.05;;
27424;SDS011;15244;49.088;11.886;2023-03-14T04:20:23;0.10;;;0.10;;
27424;SDS011;15244;49.088;11.886;2023-03-14T04:25:25;0.25;;;0.25;;
27424;SDS011;15244;49.088;11.886;2023-03-14T04:30:30;1.38;;;0.20;;
27424;SDS011;15244;49.088;11.886;2023-03-14T04:35:54;0.68;;;0.10;;
27424;SDS011;15244;49.088;11.886;2023-03-14T04:40:56;0.13;;;0.13;;
27424;SDS011;15244;49.088;11.886;2023-03-14T04:46:03;0.20;;;0.20;;
27424;SDS011;15244;49.088;11.886;2023-03-14T04:51:06;1.85;;;0.20;;
27424;SDS011;15244;49.088;11.886;2023-03-14T04:56:08;0.20;;;0.20;;
27424;SDS011;15244;49.088;11.886;2023-03-14T05:01:12;0.57;;;0.20;;
27424;SDS011;15244;49.088;11.886;2023-03-14T05:06:33;0.20;;;0.13;;
27424;SDS011;15244;49.088;11.886;2023-03-14T05:11:42;0.20;;;0.20;;
27424;SDS011;15244;49.088;11.886;2023-03-14T05:16:55;0.20;;;0.20;;
27424;SDS011;15244;49.088;11.886;2023-03-14T05:22:12;0.15;;;0.15;;
27424;SDS011;15244;49.088;11.886;2023-03-14T05:27:25;0.20;;;0.20;;
27424;SDS011;15244;49.088;11.886;2023-03-14T05:32:46;0.22;;;0.20;;
27424;SDS011;15244;49.088;11.886;2023-03-14T05:37:58;0.60;;;0.20;;
27424;SDS011;15244;49.088;11.886;2023-03-14T05:43:09;0.40;;;0.40;;
27424;SDS011;15244;49.088;11.886;2023-03-14T05:48:29;0.43;;;0.40;;
27424;SDS011;15244;49.088;11.886;2023-03-14T05:53:49;0.57;;;0.30;;
27424;SDS011;15244;49.088;11.886;2023-03-14T05:59:07;0.28;;;0.28;;
27424;SDS011;15244;49.088;11.886;2023-03-14T06:04:26;0.32;;;0.32;;
27424;SDS011;15244;49.088;11.886;2023-03-14T06:09:32;0.40;;;0.30;;
27424;SDS011;15244;49.088;11.886;2023-03-14T06:14:35;0.57;;;0.35;;
27424;SDS011;15244;49.088;11.886;2023-03-14T06:19:37;0.40;;;0.40;;
27424;SDS011;15244;49.088;11.886;2023-03-14T06:24:39;0.50;;;0.50;;
27424;SDS011;15244;49.088;11.886;2023-03-14T06:29:40;0.95;;;0.40;;
27424;SDS011;15244;49.088;11.886;2023-03-14T06:34:42;0.22;;;0.20;;
27424;SDS011;15244;49.088;11.886;2023-03-14T06:39:43;0.30;;;0.30;;
27424;SDS011;15244;49.088;11.886;2023-03-14T06:44:54;0.30;;;0.30;;
27424;SDS011;15244;49.088;11.886;2023-03-14T06:49:57;0.93;;;0.20;;
27424;SDS011;15244;49.088;11.886;2023-03-14T06:54:59;1.25;;;0.50;;
27424;SDS011;15244;49.088;11.886;2023-03-14T07:00:01;1.00;;;0.30;;
27424;SDS011;15244;49.088;11.886;2023-03-14T07:05:04;0.47;;;0.47;;
27424;SDS011;15244;49.088;11.886;2023-03-14T07:10:07;0.30;;;0.30;;
27424;SDS011;15244;49.088;11.886;2023-03-14T07:15:10;0.40;;;0.40;;
27424;SDS011;15244;49.088;11.886;2023-03-14T07:20:23;0.40;;;0.40;;
27424;SDS011;15244;49.088;11.886;2023-03-14T07:25:25;0.47;;;0.47;;
27424;SDS011;15244;49.088;11.886;2023-03-14T07:30:27;0.95;;;0.32;;
27424;SDS011;15244;49.088;11.886;2023-03-14T07:35:31;0.80;;;0.30;;
27424;SDS011;15244;49.088;11.886;2023-03-14T07:40:33;0.30;;;0.30;;
27424;SDS011;15244;49.088;11.886;2023-03-14T07:45:36;0.65;;;0.45;;
27424;SDS011;15244;49.088;11.886;2023-03-14T07:50:43;0.50;;;0.30;;
27424;SDS011;15244;49.088;11.886;2023-03-14T07:55:45;0.43;;;0.20;;
27424;SDS011;15244;49.088;11.886;2023-03-14T08:00:47;0.35;;;0.30;;
27424;SDS011;15244;49.088;11.886;2023-03-14T08:05:49;0.30;;;0.30;;
27424;SDS011;15244;49.088;11.886;2023-03-14T08:10:52;0.20;;;0.20;;
27424;SDS011;15244;49.088;11.886;2023-03-14T08:15:53;0.22;;;0.22;;
27424;SDS011;15244;49.088;11.886;2023-03-14T08:20:55;0.40;;;0.30;;
27424;SDS011;15244;49.088;11.886;2023-03-14T08:25:57;0.55;;;0.20;;
27424;SDS011;15244;49.088;11.886;2023-03-14T08:30:58;0.65;;;0.30;;
27424;SDS011;15244;49.088;11.886;2023-03-14T08:36:01;0.95;;;0.47;;
27424;SDS011;15244;49.088;11.886;2023-03-14T08:41:03;0.30;;;0.30;;
27424;SDS011;15244;49.088;11.886;2023-03-14T08:46:05;0.20;;;0.20;;
27424;SDS011;15244;49.088;11.886;2023-03-14T08:56:09;0.95;;;0.60;;
27424;SDS011;15244;49.088;11.886;2023-03-14T09:01:11;0.65;;;0.30;;
27424;SDS011;15244;49.088;11.886;2023-03-14T09:06:13;1.38;;;0.32;;
27424;SDS011;15244;49.088;11.886;2023-03-14T09:11:14;0.80;;;0.38;;
27424;SDS011;15244;49.088;11.886;2023-03-14T09:16:16;0.30;;;0.20;;
27424;SDS011;15244;49.088;11.886;2023-03-14T09:21:18;0.20;;;0.10;;
27424;SDS011;15244;49.088;11.886;2023-03-14T09:26:19;0.75;;;0.30;;
27424;SDS011;15244;49.088;11.886;2023-03-14T09:31:21;4.50;;;3.65;;
27424;SDS011;15244;49.088;11.886;2023-03-14T09:36:23;2.22;;;2.03;;
27424;SDS011;15244;49.088;11.886;2023-03-14T09:41:25;1.05;;;0.20;;
27424;SDS011;15244;49.088;11.886;2023-03-14T09:46:30;0.68;;;0.57;;
27424;SDS011;15244;49.088;11.886;2023-03-14T09:51:36;1.13;;;0.20;;
27424;SDS011;15244;49.088;11.886;2023-03-14T09:56:38;0.82;;;0.17;;
27424;SDS011;15244;49.088;11.886;2023-03-14T10:01:40;0.57;;;0.30;;
27424;SDS011;15244;49.088;11.886;2023-03-14T10:06:42;0.30;;;0.25;;
27424;SDS011;15244;49.088;11.886;2023-03-14T10:11:43;1.55;;;0.20;;
27424;SDS011;15244;49.088;11.886;2023-03-14T10:16:45;0.45;;;0.30;;
27424;SDS011;15244;49.088;11.886;2023-03-14T10:21:51;0.50;;;0.30;;
27424;SDS011;15244;49.088;11.886;2023-03-14T10:32:06;0.52;;;0.25;;
27424;SDS011;15244;49.088;11.886;2023-03-14T10:37:18;0.13;;;0.10;;
27424;SDS011;15244;49.088;11.886;2023-03-14T10:42:24;1.02;;;0.20;;
27424;SDS011;15244;49.088;11.886;2023-03-14T10:47:31;0.35;;;0.17;;
27424;SDS011;15244;49.088;11.886;2023-03-14T10:52:33;0.55;;;0.20;;
27424;SDS011;15244;49.088;11.886;2023-03-14T10:57:57;0.20;;;0.20;;
27424;SDS011;15244;49.088;11.886;2023-03-14T11:03:03;0.60;;;0.40;;
27424;SDS011;15244;49.088;11.886;2023-03-14T11:08:13;0.43;;;0.20;;
27424;SDS011;15244;49.088;11.886;2023-03-14T11:13:39;0.70;;;0.22;;
27424;SDS011;15244;49.088;11.886;2023-03-14T11:34:52;0.68;;;0.38;;
27424;SDS011;15244;49.088;11.886;2023-03-14T11:40:07;0.30;;;0.20;;
27424;SDS011;15244;49.088;11.886;2023-03-14T11:45:33;0.40;;;0.40;;
27424;SDS011;15244;49.088;11.886;2023-03-14T11:50:37;0.68;;;0.38;;
27424;SDS011;15244;49.088;11.886;2023-03-14T11:55:41;0.57;;;0.40;;
27424;SDS011;15244;49.088;11.886;2023-03-14T12:00:44;1.63;;;1.15;;
27424;SDS011;15244;49.088;11.886;2023-03-14T12:11:50;0.88;;;0.40;;
27424;SDS011;15244;49.088;11.886;2023-03-14T12:16:58;0.35;;;0.13;;
27424;SDS011;15244;49.088;11.886;2023-03-14T12:27:09;0.60;;;0.32;;
27424;SDS011;15244;49.088;11.886;2023-03-14T12:32:34;0.45;;;0.22;;
27424;SDS011;15244;49.088;11.886;2023-03-14T12:37:36;0.30;;;0.10;;
27424;SDS011;15244;49.088;11.886;2023-03-14T12:42:51;0.43;;;0.20;;
27424;SDS011;15244;49.088;11.886;2023-03-14T12:53:23;0.25;;;0.20;;
27424;SDS011;15244;49.088;11.886;2023-03-14T12:58:39;0.20;;;0.20;;
27424;SDS011;15244;49.088;11.886;2023-03-14T13:03:52;0.22;;;0.20;;
27424;SDS011;15244;49.088;11.886;2023-03-14T13:08:58;0.20;;;0.20;;
27424;SDS011;15244;49.088;11.886;2023-03-14T13:13:59;1.20;;;0.20;;
27424;SDS011;15244;49.088;11.886;2023-03-14T13:19:02;0.40;;;0.40;;
27424;SDS011;15244;49.088;11.886;2023-03-14T13:24:20;0.10;;;0.10;;
27424;SDS011;15244;49.088;11.886;2023-03-14T13:29:27;0.20;;;0.20;;
27424;SDS011;15244;49.088;11.886;2023-03-14T13:34:33;0.30;;;0.20;;
27424;SDS011;15244;49.088;11.886;2023-03-14T13:39:37;0.75;;;0.47;;
27424;SDS011;15244;49.088;11.886;2023-03-14T13:44:41;0.45;;;0.10;;
27424;SDS011;15244;49.088;11.886;2023-03-14T13:49:43;0.30;;;0.10;;
27424;SDS011;15244;49.088;11.886;2023-03-14T13:54:46;0.30;;;0.10;;
27424;SDS011;15244;49.088;11.886;2023-03-14T14:00:16;0.93;;;0.10;;
27424;SDS011;15244;49.088;11.886;2023-03-14T14:05:19;0.93;;;0.20;;
27424;SDS011;15244;49.088;11.886;2023-03-14T14:10:20;0.82;;;0.40;;
27424;SDS011;15244;49.088;11.886;2023-03-14T14:15:23;0.65;;;0.20;;
27424;SDS011;15244;49.088;11.886;2023-03-14T14:20:34;0.32;;;0.10;;
27424;SDS011;15244;49.088;11.886;2023-03-14T14:25:39;0.47;;;0.40;;
27424;SDS011;15244;49.088;11.886;2023-03-14T14:30:41;0.52;;;0.52;;
27424;SDS011;15244;49.088;11.886;2023-03-14T14:35:48;0.30;;;0.30;;
27424;SDS011;15244;49.088;11.886;2023-03-14T14:41:01;0.00;;;0.00;;
27424;SDS011;15244;49.088;11.886;2023-03-14T14:46:05;0.10;;;0.10;;
27424;SDS011;15244;49.088;11.886;2023-03-14T14:51:09;0.40;;;0.10;;
27424;SDS011;15244;49.088;11.886;2023-03-14T14:56:15;0.75;;;0.45;;
27424;SDS011;15244;49.088;11.886;2023-03-14T15:01:20;0.10;;;0.10;;
27424;SDS011;15244;49.088;11.886;2023-03-14T15:06:25;0.17;;;0.15;;
27424;SDS011;15244;49.088;11.886;2023-03-14T15:11:30;0.20;;;0.20;;
27424;SDS011;15244;49.088;11.886;2023-03-14T15:16:31;0.20;;;0.20;;
27424;SDS011;15244;49.088;11.886;2023-03-14T15:21:33;0.20;;;0.20;;
27424;SDS011;15244;49.088;11.886;2023-03-14T15:26:35;0.17;;;0.17;;
27424;SDS011;15244;49.088;11.886;2023-03-14T15:31:36;0.45;;;0.45;;
27424;SDS011;15244;49.088;11.886;2023-03-14T15:36:38;0.40;;;0.40;;
27424;SDS011;15244;49.088;11.886;2023-03-14T15:41:40;0.50;;;0.50;;
27424;SDS011;15244;49.088;11.886;2023-03-14T15:46:41;0.75;;;0.75;;
27424;SDS011;15244;49.088;11.886;2023-03-14T15:51:43;0.75;;;0.65;;
27424;SDS011;15244;49.088;11.886;2023-03-14T15:56:44;1.58;;;0.50;;
27424;SDS011;15244;49.088;11.886;2023-03-14T16:01:46;1.60;;;0.90;;
27424;SDS011;15244;49.088;11.886;2023-03-14T16:06:49;1.75;;;0.60;;
27424;SDS011;15244;49.088;11.886;2023-03-14T16:11:50;2.15;;;0.85;;
27424;SDS011;15244;49.088;11.886;2023-03-14T16:16:52;1.05;;;0.93;;
27424;SDS011;15244;49.088;11.886;2023-03-14T16:21:56;0.38;;;0.38;;
27424;SDS011;15244;49.088;11.886;2023-03-14T16:26:58;2.80;;;0.38;;
27424;SDS011;15244;49.088;11.886;2023-03-14T16:31:59;1.35;;;0.70;;
27424;SDS011;15244;49.088;11.886;2023-03-14T16:37:01;0.77;;;0.40;;
27424;SDS011;15244;49.088;11.886;2023-03-14T16:42:03;0.60;;;0.60;;
27424;SDS011;15244;49.088;11.886;2023-03-14T16:47:04;2.00;;;0.60;;
27424;SDS011;15244;49.088;11.886;2023-03-14T16:52:11;1.50;;;0.50;;
27424;SDS011;15244;49.088;11.886;2023-03-14T16:57:12;0.85;;;0.60;;
27424;SDS011;15244;49.088;11.886;2023-03-14T17:02:14;2.15;;;0.50;;
27424;SDS011;15244;49.088;11.886;2023-03-14T17:07:16;0.50;;;0.50;;
27424;SDS011;15244;49.088;11.886;2023-03-14T17:12:17;1.35;;;0.38;;
27424;SDS011;15244;49.088;11.886;2023-03-14T17:17:19;2.33;;;0.50;;
27424;SDS011;15244;49.088;11.886;2023-03-14T17:22:21;1.85;;;0.60;;
27424;SDS011;15244;49.088;11.886;2023-03-14T17:27:27;1.42;;;0.70;;
27424;SDS011;15244;49.088;11.886;2023-03-14T17:32:29;1.17;;;0.50;;
27424;SDS011;15244;49.088;11.886;2023-03-14T17:37:31;0.63;;;0.45;;
27424;SDS011;15244;49.088;11.886;2023-03-14T17:42:32;2.55;;;0.68;;
27424;SDS011;15244;49.088;11.886;2023-03-14T17:47:34;1.00;;;0.65;;
27424;SDS011;15244;49.088;11.886;2023-03-14T17:52:35;1.30;;;0.50;;
27424;SDS011;15244;49.088;11.886;2023-03-14T17:57:37;4.45;;;0.73;;
27424;SDS011;15244;49.088;11.886;2023-03-14T18:02:40;1.08;;;0.52;;
27424;SDS011;15244;49.088;11.886;2023-03-14T18:07:42;1.42;;;0.57;;
27424;SDS011;15244;49.088;11.886;2023-03-14T18:12:44;1.98;;;0.52;;
27424;SDS011;15244;49.088;11.886;2023-03-14T18:17:45;1.02;;;0.55;;
27424;SDS011;15244;49.088;11.886;2023-03-14T18:22:47;1.45;;;0.60;;
27424;SDS011;15244;49.088;11.886;2023-03-14T18:27:49;3.85;;;0.85;;
27424;SDS011;15244;49.088;11.886;2023-03-14T18:32:50;1.05;;;0.50;;
27424;SDS011;15244;49.088;11.886;2023-03-14T18:37:52;2.50;;;0.75;;
27424;SDS011;15244;49.088;11.886;2023-03-14T18:42:54;1.98;;;0.60;;
27424;SDS011;15244;49.088;11.886;2023-03-14T18:47:56;3.22;;;0.70;;
27424;SDS011;15244;49.088;11.886;2023-03-14T18:52:58;1.48;;;0.50;;
27424;SDS011;15244;49.088;11.886;2023-03-14T18:57:59;2.35;;;0.75;;
27424;SDS011;15244;49.088;11.886;2023-03-14T19:03:02;0.90;;;0.70;;
27424;SDS011;15244;49.088;11.886;2023-03-14T19:08:04;1.95;;;0.85;;
27424;SDS011;15244;49.088;11.886;2023-03-14T19:13:06;1.00;;;0.60;;
27424;SDS011;15244;49.088;11.886;2023-03-14T19:18:08;1.70;;;0.60;;
27424;SDS011;15244;49.088;11.886;2023-03-14T19:23:11;1.08;;;0.45;;
27424;SDS011;15244;49.088;11.886;2023-03-14T19:28:14;1.42;;;0.80;;
27424;SDS011;15244;49.088;11.886;2023-03-14T19:33:16;1.73;;;0.80;;
27424;SDS011;15244;49.088;11.886;2023-03-14T19:38:18;1.55;;;0.60;;
27424;SDS011;15244;49.088;11.886;2023-03-14T19:43:20;2.25;;;0.68;;
27424;SDS011;15244;49.088;11.886;2023-03-14T19:48:22;3.65;;;0.65;;
27424;SDS011;15244;49.088;11.886;2023-03-14T19:53:30;4.63;;;0.75;;
27424;SDS011;15244;49.088;11.886;2023-03-14T19:58:33;2.90;;;0.70;;
27424;SDS011;15244;49.088;11.886;2023-03-14T20:03:34;1.60;;;0.68;;
27424;SDS011;15244;49.088;11.886;2023-03-14T20:08:37;1.17;;;0.82;;
27424;SDS011;15244;49.088;11.886;2023-03-14T20:13:39;3.83;;;0.90;;
27424;SDS011;15244;49.088;11.886;2023-03-14T20:18:41;1.98;;;0.80;;
27424;SDS011;15244;49.088;11.886;2023-03-14T20:23:43;2.30;;;1.10;;
27424;SDS011;15244;49.088;11.886;2023-03-14T20:28:44;3.03;;;1.15;;
27424;SDS011;15244;49.088;11.886;2023-03-14T20:33:47;5.32;;;2.22;;
27424;SDS011;15244;49.088;11.886;2023-03-14T20:38:52;2.38;;;1.25;;
27424;SDS011;15244;49.088;11.886;2023-03-14T20:43:53;6.57;;;2.80;;
27424;SDS011;15244;49.088;11.886;2023-03-14T20:48:55;4.95;;;2.05;;
27424;SDS011;15244;49.088;11.886;2023-03-14T20:53:56;3.08;;;1.00;;
27424;SDS011;15244;49.088;11.886;2023-03-14T20:58:58;2.60;;;1.00;;
27424;SDS011;15244;49.088;11.886;2023-03-14T21:04:00;3.55;;;1.20;;
27424;SDS011;15244;49.088;11.886;2023-03-14T21:09:01;2.50;;;1.45;;
27424;SDS011;15244;49.088;11.886;2023-03-14T21:14:05;1.90;;;1.00;;
27424;SDS011;15244;49.088;11.886;2023-03-14T21:19:07;2.40;;;1.08;;
27424;SDS011;15244;49.088;11.886;2023-03-14T21:24:09;3.58;;;0.80;;
27424;SDS011;15244;49.088;11.886;2023-03-14T21:29:10;1.90;;;0.90;;
27424;SDS011;15244;49.088;11.886;2023-03-14T21:34:12;1.58;;;1.10;;
27424;SDS011;15244;49.088;11.886;2023-03-14T21:39:13;4.22;;;1.23;;
27424;SDS011;15244;49.088;11.886;2023-03-14T21:44:15;4.93;;;1.60;;
27424;SDS011;15244;49.088;11.886;2023-03-14T21:49:19;5.28;;;2.00;;
27424;SDS011;15244;49.088;11.886;2023-03-14T21:54:20;2.92;;;1.80;;
27424;SDS011;15244;49.088;11.886;2023-03-14T21:59:22;3.05;;;1.23;;
27424;SDS011;15244;49.088;11.886;2023-03-14T22:04:24;1.48;;;1.00;;
27424;SDS011;15244;49.088;11.886;2023-03-14T22:09:26;2.92;;;1.02;;
27424;SDS011;15244;49.088;11.886;2023-03-14T22:14:28;1.17;;;1.02;;
27424;SDS011;15244;49.088;11.886;2023-03-14T22:19:30;1.88;;;1.00;;
27424;SDS011;15244;49.088;11.886;2023-03-14T22:24:35;1.80;;;1.20;;
27424;SDS011;15244;49.088;11.886;2023-03-14T22:29:36;2.80;;;0.80;;
27424;SDS011;15244;49.088;11.886;2023-03-14T22:34:38;1.80;;;0.90;;
27424;SDS011;15244;49.088;11.886;2023-03-14T22:39:39;4.60;;;1.13;;
27424;SDS011;15244;49.088;11.886;2023-03-14T22:44:41;2.45;;;0.93;;
27424;SDS011;15244;49.088;11.886;2023-03-14T22:49:43;6.35;;;1.58;;
27424;SDS011;15244;49.088;11.886;2023-03-14T22:54:44;3.22;;;1.10;;
27424;SDS011;15244;49.088;11.886;2023-03-14T22:59:46;1.63;;;1.10;;
27424;SDS011;15244;49.088;11.886;2023-03-14T23:04:47;4.30;;;1.17;;
27424;SDS011;15244;49.088;11.886;2023-03-14T23:09:49;1.55;;;0.95;;
27424;SDS011;15244;49.088;11.886;2023-03-14T23:14:51;0.40;;;0.30;;
27424;SDS011;15244;49.088;11.886;2023-03-14T23:19:54;0.55;;;0.22;;
27424;SDS011;15244;49.088;11.886;2023-03-14T23:24:55;0.40;;;0.40;;
27424;SDS011;15244;49.088;11.886;2023-03-14T23:29:57;0.30;;;0.30;;
27424;SDS011;15244;49.088;11.886;2023-03-14T23:34:59;0.60;;;0.60;;
27424;SDS011;15244;49.088;11.886;2023-03-14T23:40:01;1.02;;;0.85;;
27424;SDS011;15244;49.088;11.886;2023-03-14T23:45:03;0.73;;;0.73;;
27424;SDS011;15244;49.088;11.886;2023-03-14T23:50:05;0.70;;;0.70;;
27424;SDS011;15244;49.088;11.886;2023-03-14T23:55:07;0.80;;;0.80;;
